createdAt,value
2022-10-25T00:01:05.602Z,10.94
2022-10-25T00:04:07.034Z,10.94
2022-10-25T00:07:08.518Z,10.94
2022-10-25T00:10:09.863Z,10.95
2022-10-25T00:13:11.249Z,10.97
2022-10-25T00:16:16.541Z,10.92
2022-10-25T00:19:17.980Z,10.88
2022-10-25T00:22:19.331Z,10.84
2022-10-25T00:25:20.766Z,10.82
2022-10-25T00:28:22.181Z,10.80
2022-10-25T00:31:26.028Z,10.79
2022-10-25T00:34:27.413Z,10.69
2022-10-25T00:37:28.820Z,10.64
2022-10-25T00:40:30.215Z,10.59
2022-10-25T00:43:37.574Z,10.60
2022-10-25T00:46:41.932Z,10.62
2022-10-25T00:49:44.294Z,10.61
2022-10-25T00:52:47.240Z,10.59
2022-10-25T00:55:51.743Z,10.58
2022-10-25T00:58:55.422Z,10.59
2022-10-25T01:01:57.388Z,10.58
2022-10-25T01:04:58.936Z,10.54
2022-10-25T01:08:00.369Z,10.50
2022-10-25T01:11:01.743Z,10.45
2022-10-25T01:14:03.839Z,10.38
2022-10-25T01:17:12.712Z,10.42
2022-10-25T01:20:46.312Z,10.43
2022-10-25T01:24:17.189Z,10.44
2022-10-25T01:27:29.434Z,10.43
2022-10-25T01:30:49.458Z,10.43
2022-10-25T01:34:07.356Z,10.42
2022-10-25T01:37:11.861Z,10.42
2022-10-25T01:40:21.196Z,10.45
2022-10-25T01:43:28.486Z,10.50
2022-10-25T01:46:34.922Z,10.53
2022-10-25T01:49:44.423Z,10.50
2022-10-25T01:52:45.815Z,10.50
2022-10-25T01:55:47.228Z,10.58
2022-10-25T01:58:48.596Z,10.68
2022-10-25T02:02:08.938Z,10.78
2022-10-25T02:05:10.364Z,10.88
2022-10-25T02:08:21.462Z,10.94
2022-10-25T02:11:24.424Z,11.01
2022-10-25T02:14:29.971Z,11.03
2022-10-25T02:17:33.916Z,10.99
2022-10-25T02:20:35.867Z,10.95
2022-10-25T02:23:37.761Z,10.98
2022-10-25T02:26:41.038Z,10.99
2022-10-25T02:29:44.133Z,10.85
2022-10-25T02:32:45.616Z,10.79
2022-10-25T02:36:04.362Z,10.74
2022-10-25T02:39:06.736Z,10.68
2022-10-25T02:42:08.179Z,10.64
2022-10-25T02:45:09.990Z,10.58
2022-10-25T02:48:11.479Z,10.52
2022-10-25T02:51:13.575Z,10.51
2022-10-25T02:54:15.102Z,10.49
2022-10-25T02:57:16.478Z,10.44
2022-10-25T03:00:18.061Z,10.38
2022-10-25T03:03:19.480Z,10.35
2022-10-25T03:06:20.987Z,10.28
2022-10-25T03:09:22.488Z,10.26
2022-10-25T03:12:23.905Z,10.24
2022-10-25T03:15:25.323Z,10.22
2022-10-25T03:18:26.716Z,10.20
2022-10-25T03:21:28.203Z,10.16
2022-10-25T03:24:29.710Z,10.11
2022-10-25T03:27:31.138Z,10.07
2022-10-25T03:30:32.569Z,10.03
2022-10-25T03:33:34.497Z,10.02
2022-10-25T03:36:35.880Z,10.00
2022-10-25T03:39:37.276Z,9.98
2022-10-25T03:42:38.700Z,9.98
2022-10-25T03:45:40.132Z,9.98
2022-10-25T03:48:42.009Z,10.02
2022-10-25T03:51:43.428Z,10.09
2022-10-25T03:54:44.834Z,10.16
2022-10-25T03:57:46.494Z,10.27
2022-10-25T04:00:48.142Z,10.29
2022-10-25T04:03:49.677Z,10.31
2022-10-25T04:06:51.094Z,10.35
2022-10-25T04:09:52.521Z,10.37
2022-10-25T04:12:54.797Z,10.39
2022-10-25T04:15:56.719Z,10.39
2022-10-25T04:18:59.067Z,10.43
2022-10-25T04:22:02.496Z,10.47
2022-10-25T04:25:04.105Z,10.57
2022-10-25T04:28:05.587Z,10.62
2022-10-25T04:31:07.017Z,10.68
2022-10-25T04:34:08.428Z,10.71
2022-10-25T04:37:09.941Z,10.72
2022-10-25T04:40:11.851Z,10.62
2022-10-25T04:43:13.315Z,10.51
2022-10-25T04:46:14.881Z,10.41
2022-10-25T04:49:16.391Z,10.35
2022-10-25T04:52:19.175Z,10.30
2022-10-25T04:55:20.581Z,10.24
2022-10-25T04:58:21.935Z,10.17
2022-10-25T05:01:23.462Z,10.13
2022-10-25T05:04:24.926Z,10.11
2022-10-25T05:07:26.448Z,10.08
2022-10-25T05:10:27.880Z,10.02
2022-10-25T05:13:31.495Z,9.97
2022-10-25T05:16:34.983Z,9.98
2022-10-25T05:19:36.396Z,9.93
2022-10-25T05:22:37.839Z,9.90
2022-10-25T05:25:39.311Z,9.85
2022-10-25T05:28:42.174Z,9.80
2022-10-25T05:31:43.656Z,9.77
2022-10-25T05:34:45.064Z,9.74
2022-10-25T05:37:47.515Z,9.76
2022-10-25T05:44:01.280Z,9.75
2022-10-25T05:47:02.904Z,9.72
2022-10-25T05:50:04.411Z,9.69
2022-10-25T05:53:05.924Z,9.67
2022-10-25T05:56:07.315Z,9.68
2022-10-25T05:59:10.081Z,9.66
2022-10-25T06:02:12.021Z,9.61
2022-10-25T06:05:13.573Z,9.56
2022-10-25T06:08:14.972Z,9.56
2022-10-25T06:11:17.736Z,9.56
2022-10-25T06:14:19.216Z,9.60
2022-10-25T06:17:20.639Z,9.61
2022-10-25T06:20:22.041Z,9.58
2022-10-25T06:23:23.480Z,9.58
2022-10-25T06:26:26.456Z,9.62
2022-10-25T06:29:30.669Z,9.66
2022-10-25T06:32:32.162Z,9.71
2022-10-25T06:35:33.871Z,9.73
2022-10-25T06:38:35.445Z,9.76
2022-10-25T06:41:37.501Z,9.83
2022-10-25T06:44:39.337Z,9.92
2022-10-25T06:47:44.697Z,10.02
2022-10-25T06:50:48.545Z,10.12
2022-10-25T06:53:55.984Z,10.23
2022-10-25T06:56:57.892Z,10.35
2022-10-25T07:00:02.339Z,10.48
2022-10-25T07:03:03.735Z,10.59
2022-10-25T07:06:06.334Z,10.66
2022-10-25T07:09:09.870Z,10.75
2022-10-25T07:12:12.795Z,10.81
2022-10-25T07:15:14.595Z,10.91
2022-10-25T07:18:17.467Z,11.00
2022-10-25T07:21:20.613Z,11.11
2022-10-25T07:24:24.441Z,11.21
2022-10-25T07:27:25.885Z,11.31
2022-10-25T07:30:27.336Z,11.40
2022-10-25T07:33:30.169Z,11.53
2022-10-25T07:36:31.711Z,11.63
2022-10-25T07:39:33.097Z,11.71
2022-10-25T07:42:34.529Z,11.81
2022-10-25T07:45:36.897Z,11.90
2022-10-25T07:48:38.333Z,11.97
2022-10-25T07:51:39.820Z,12.09
2022-10-25T07:54:41.230Z,12.20
2022-10-25T07:57:42.638Z,12.27
2022-10-25T08:00:44.240Z,12.33
2022-10-25T08:03:45.708Z,12.40
2022-10-25T08:06:47.101Z,12.55
2022-10-25T08:09:48.523Z,12.71
2022-10-25T08:12:50.087Z,12.83
2022-10-25T08:15:52.850Z,12.88
2022-10-25T08:18:54.314Z,12.94
2022-10-25T08:21:55.724Z,13.03
2022-10-25T08:24:57.175Z,13.14
2022-10-25T08:27:58.561Z,13.24
2022-10-25T08:31:01.248Z,13.38
2022-10-25T08:34:03.169Z,13.51
2022-10-25T08:37:04.833Z,13.63
2022-10-25T08:40:06.729Z,13.76
2022-10-25T08:43:14.681Z,13.87
2022-10-25T08:46:21.958Z,13.99
2022-10-25T08:49:24.144Z,14.08
2022-10-25T08:52:45.783Z,14.17
2022-10-25T08:59:13.594Z,14.50
2022-10-25T09:02:21.877Z,14.60
2022-10-25T09:05:26.210Z,14.72
2022-10-25T09:08:46.635Z,14.92
2022-10-25T09:11:50.552Z,15.04
2022-10-25T09:15:07.400Z,15.12
2022-10-25T09:18:16.488Z,15.23
2022-10-25T09:21:37.265Z,15.33
2022-10-25T09:24:38.688Z,15.50
2022-10-25T09:27:47.510Z,15.56
2022-10-25T09:30:49.949Z,15.61
2022-10-25T09:33:58.778Z,15.69
2022-10-25T09:37:25.761Z,15.87
2022-10-25T09:40:33.213Z,15.89
2022-10-25T09:43:40.874Z,15.96
2022-10-25T09:46:45.090Z,15.96
2022-10-25T09:49:56.278Z,16.05
2022-10-25T09:53:00.550Z,16.07
2022-10-25T09:56:04.442Z,16.17
2022-10-25T09:59:05.829Z,16.14
2022-10-25T10:02:11.829Z,16.21
2022-10-25T10:05:14.544Z,16.17
2022-10-25T10:08:16.520Z,16.21
2022-10-25T10:11:19.173Z,16.24
2022-10-25T10:14:38.431Z,16.40
2022-10-25T10:17:39.900Z,16.33
2022-10-25T10:20:55.210Z,16.38
2022-10-25T10:24:05.041Z,16.50
2022-10-25T10:27:08.467Z,16.54
2022-10-25T10:30:19.211Z,16.54
2022-10-25T10:33:21.962Z,16.66
2022-10-25T10:36:24.523Z,16.74
2022-10-25T10:39:25.926Z,16.80
2022-10-25T10:42:34.150Z,16.79
2022-10-25T10:45:35.637Z,16.84
2022-10-25T10:48:42.126Z,16.95
2022-10-25T10:51:45.739Z,17.00
2022-10-25T10:54:48.081Z,17.08
2022-10-25T10:57:52.175Z,17.17
2022-10-25T11:01:02.020Z,17.26
2022-10-25T11:04:03.535Z,17.36
2022-10-25T11:07:20.312Z,17.43
2022-10-25T11:10:25.868Z,17.48
2022-10-25T11:13:28.281Z,17.57
2022-10-25T11:16:42.151Z,17.63
2022-10-25T11:20:02.197Z,17.67
2022-10-25T11:23:08.094Z,17.74
2022-10-25T11:26:09.452Z,17.77
2022-10-25T11:29:19.404Z,17.85
2022-10-25T11:32:23.922Z,17.90
2022-10-25T11:35:28.167Z,17.92
2022-10-25T11:38:35.763Z,17.94
2022-10-25T11:41:58.316Z,17.99
2022-10-25T11:45:05.914Z,18.00
2022-10-25T11:48:13.685Z,18.01
2022-10-25T11:51:27.055Z,18.09
2022-10-25T11:54:31.430Z,18.15
2022-10-25T11:57:47.893Z,18.27
2022-10-25T12:00:55.544Z,18.43
2022-10-25T12:04:09.891Z,18.50
2022-10-25T12:07:18.993Z,18.48
2022-10-25T12:10:34.705Z,18.46
2022-10-25T12:13:39.627Z,18.63
2022-10-25T12:16:41.527Z,18.66
2022-10-25T12:19:45.529Z,18.71
2022-10-25T12:22:50.036Z,18.71
2022-10-25T12:26:00.259Z,18.66
2022-10-25T12:29:03.177Z,18.63
2022-10-25T12:32:10.475Z,18.65
2022-10-25T12:35:18.093Z,18.78
2022-10-25T12:38:29.924Z,18.81
2022-10-25T12:41:34.551Z,18.85
2022-10-25T12:44:38.830Z,18.90
2022-10-25T12:47:55.648Z,18.86
2022-10-25T12:51:00.093Z,18.95
2022-10-25T12:54:07.699Z,18.95
2022-10-25T12:57:09.103Z,19.04
2022-10-25T13:03:54.456Z,19.12
2022-10-25T13:06:56.225Z,19.08
2022-10-25T13:10:14.983Z,19.12
2022-10-25T13:13:22.588Z,19.11
2022-10-25T13:16:28.592Z,19.19
2022-10-25T13:22:52.121Z,19.23
2022-10-25T13:25:53.928Z,19.21
2022-10-25T13:28:59.919Z,19.17
2022-10-25T13:32:10.341Z,19.22
2022-10-25T13:35:34.281Z,19.22
2022-10-25T13:38:39.648Z,19.21
2022-10-25T13:41:47.586Z,19.21
2022-10-25T13:45:04.083Z,19.31
2022-10-25T13:48:15.717Z,19.33
2022-10-25T13:51:21.508Z,19.31
2022-10-25T13:54:25.919Z,19.35
2022-10-25T13:57:48.357Z,19.40
2022-10-25T14:00:53.056Z,19.45
2022-10-25T14:04:02.372Z,19.47
2022-10-25T14:07:22.295Z,19.50
2022-10-25T14:10:26.136Z,19.53
2022-10-25T14:13:30.441Z,19.55
2022-10-25T14:16:33.294Z,19.65
2022-10-25T14:19:37.799Z,19.72
2022-10-25T14:22:41.534Z,19.83
2022-10-25T14:25:56.649Z,19.81
2022-10-25T14:29:14.498Z,19.86
2022-10-25T14:32:20.591Z,20.02
2022-10-25T14:35:22.509Z,20.33
2022-10-25T14:38:25.359Z,20.73
2022-10-25T14:41:31.128Z,20.90
2022-10-25T14:44:43.568Z,20.78
2022-10-25T14:47:45.018Z,20.74
2022-10-25T14:50:46.404Z,20.58
2022-10-25T14:53:55.801Z,20.08
2022-10-25T14:56:59.325Z,19.68
2022-10-25T15:00:02.247Z,19.29
2022-10-25T15:03:11.668Z,18.96
2022-10-25T15:06:24.483Z,18.65
2022-10-25T15:09:43.059Z,18.39
2022-10-25T15:12:51.611Z,18.19
2022-10-25T15:15:54.798Z,17.87
2022-10-25T15:19:04.616Z,17.58
2022-10-25T15:22:07.411Z,17.42
2022-10-25T15:25:19.262Z,17.33
2022-10-25T15:28:21.055Z,17.21
2022-10-25T15:31:24.833Z,17.13
2022-10-25T15:34:26.409Z,17.00
2022-10-25T15:37:28.418Z,16.87
2022-10-25T15:40:30.026Z,16.71
2022-10-25T15:43:31.419Z,16.45
2022-10-25T15:46:37.923Z,16.24
2022-10-25T15:49:42.361Z,16.05
2022-10-25T15:52:43.960Z,15.90
2022-10-25T15:55:45.765Z,15.71
2022-10-25T15:58:47.868Z,15.47
2022-10-25T16:01:51.775Z,15.26
2022-10-25T16:04:53.405Z,15.12
2022-10-25T16:07:54.926Z,14.93
2022-10-25T16:10:57.265Z,14.78
2022-10-25T16:13:58.934Z,14.68
2022-10-25T16:17:00.341Z,14.57
2022-10-25T16:20:01.804Z,14.55
2022-10-25T16:23:03.181Z,14.44
2022-10-25T16:26:04.628Z,14.33
2022-10-25T16:29:06.387Z,14.23
2022-10-25T16:32:07.846Z,14.06
2022-10-25T16:35:09.669Z,13.96
2022-10-25T16:41:24.833Z,13.74
2022-10-25T16:44:26.351Z,13.61
2022-10-25T16:47:28.074Z,13.48
2022-10-25T16:50:30.412Z,13.45
2022-10-25T16:53:31.766Z,13.40
2022-10-25T16:56:33.245Z,13.33
2022-10-25T16:59:34.645Z,13.25
2022-10-25T17:02:36.037Z,13.20
2022-10-25T17:05:39.746Z,13.17
2022-10-25T17:08:41.172Z,13.12
2022-10-25T17:11:42.875Z,13.06
2022-10-25T17:14:44.343Z,13.00
2022-10-25T17:17:46.445Z,12.93
2022-10-25T17:20:49.947Z,12.75
2022-10-25T17:23:51.352Z,12.77
2022-10-25T17:26:52.846Z,12.62
2022-10-25T17:29:54.367Z,12.60
2022-10-25T17:32:55.803Z,12.66
2022-10-25T17:35:57.208Z,12.66
2022-10-25T17:38:59.309Z,12.59
2022-10-25T17:42:00.811Z,12.52
2022-10-25T17:45:02.244Z,12.57
2022-10-25T17:48:04.263Z,12.55
2022-10-25T17:51:07.142Z,12.54
2022-10-25T17:54:09.893Z,12.52
2022-10-25T17:57:11.314Z,12.52
2022-10-25T18:00:14.117Z,12.48
2022-10-25T18:03:16.607Z,12.54
2022-10-25T18:06:19.913Z,12.61
2022-10-25T18:09:21.356Z,12.63
2022-10-25T18:12:22.830Z,12.64
2022-10-25T18:15:24.260Z,12.62
2022-10-25T18:18:25.657Z,12.60
2022-10-25T18:21:27.480Z,12.55
2022-10-25T18:24:29.106Z,12.54
2022-10-25T18:27:32.769Z,12.56
2022-10-25T18:30:36.828Z,12.55
2022-10-25T18:33:39.244Z,12.56
2022-10-25T18:36:40.640Z,12.58
2022-10-25T18:39:42.064Z,12.60
2022-10-25T18:42:43.513Z,12.63
2022-10-25T18:45:45.067Z,12.65
2022-10-25T18:48:51.448Z,12.67
2022-10-25T18:51:52.807Z,12.69
2022-10-25T18:54:54.331Z,12.71
2022-10-25T18:57:57.543Z,12.69
2022-10-25T19:01:06.223Z,12.72
2022-10-25T19:04:07.768Z,12.74
2022-10-25T19:07:09.180Z,12.76
2022-10-25T19:10:10.632Z,12.78
2022-10-25T19:13:18.750Z,12.77
2022-10-25T19:16:20.261Z,12.81
2022-10-25T19:19:21.772Z,12.82
2022-10-25T19:22:23.200Z,12.84
2022-10-25T19:25:25.705Z,12.86
2022-10-25T19:28:27.108Z,12.86
2022-10-25T19:31:28.832Z,12.85
2022-10-25T19:34:30.233Z,12.86
2022-10-25T19:37:31.962Z,12.85
2022-10-25T19:40:33.432Z,12.87
2022-10-25T19:43:36.112Z,12.89
2022-10-25T19:46:42.373Z,12.93
2022-10-25T19:49:44.632Z,12.98
2022-10-25T19:52:47.169Z,13.06
2022-10-25T19:55:58.423Z,13.09
2022-10-25T19:58:59.831Z,13.10
2022-10-25T20:02:02.657Z,13.13
2022-10-25T20:05:04.301Z,13.09
2022-10-25T20:08:05.759Z,13.08
2022-10-25T20:11:10.741Z,13.07
2022-10-25T20:14:12.220Z,13.06
2022-10-25T20:17:13.991Z,13.07
2022-10-25T20:20:15.448Z,13.06
2022-10-25T20:23:17.335Z,13.06
2022-10-25T20:26:20.336Z,13.07
2022-10-25T20:29:23.284Z,13.08
2022-10-25T20:32:24.766Z,13.09
2022-10-25T20:35:27.157Z,13.09
2022-10-25T20:38:28.956Z,13.10
2022-10-25T20:41:30.728Z,13.13
2022-10-25T20:44:32.185Z,13.15
2022-10-25T20:47:33.618Z,13.10
2022-10-25T20:50:35.129Z,13.11
2022-10-25T20:53:37.148Z,13.11
2022-10-25T20:56:39.620Z,13.06
2022-10-25T20:59:41.288Z,13.05
2022-10-25T21:02:45.500Z,13.05
2022-10-25T21:05:46.992Z,13.07
2022-10-25T21:08:48.410Z,13.05
2022-10-25T21:11:49.916Z,13.01
2022-10-25T21:14:51.338Z,12.99
2022-10-25T21:17:55.548Z,12.96
2022-10-25T21:21:00.263Z,12.94
2022-10-25T21:24:02.868Z,12.93
2022-10-25T21:27:04.285Z,12.88
2022-10-25T21:30:06.212Z,12.81
2022-10-25T21:33:07.800Z,12.76
2022-10-25T21:36:10.831Z,12.72
2022-10-25T21:39:12.213Z,12.69
2022-10-25T21:42:14.191Z,12.70
2022-10-25T21:45:15.619Z,12.72
2022-10-25T21:48:17.087Z,12.68
2022-10-25T21:51:19.207Z,12.67
2022-10-25T21:54:21.989Z,12.67
2022-10-25T21:57:23.700Z,12.71
2022-10-25T22:00:25.145Z,12.73
2022-10-25T22:03:28.205Z,12.73
2022-10-25T22:06:30.304Z,12.70
2022-10-25T22:09:31.751Z,12.70
2022-10-25T22:12:33.192Z,12.74
2022-10-25T22:15:34.579Z,12.75
2022-10-25T22:18:36.503Z,12.74
2022-10-25T22:21:38.741Z,12.73
2022-10-25T22:24:40.083Z,12.68
2022-10-25T22:27:41.552Z,12.78
2022-10-25T22:30:42.967Z,12.78
2022-10-25T22:33:44.814Z,12.79
2022-10-25T22:36:46.169Z,12.84
2022-10-25T22:39:47.629Z,12.94
2022-10-25T22:42:49.165Z,13.03
2022-10-25T22:45:52.942Z,13.06
2022-10-25T22:48:55.810Z,13.10
2022-10-25T22:51:57.266Z,13.14
2022-10-25T22:54:58.665Z,13.17
2022-10-25T22:58:00.083Z,13.20
2022-10-25T23:04:09.798Z,13.25
2022-10-25T23:07:11.285Z,13.29
2022-10-25T23:10:14.433Z,13.32
2022-10-25T23:13:15.809Z,13.32
2022-10-25T23:16:17.937Z,13.36
2022-10-25T23:19:19.392Z,13.40
2022-10-25T23:22:20.790Z,13.44
2022-10-25T23:25:22.213Z,13.53
2022-10-25T23:28:23.564Z,13.59
2022-10-25T23:31:25.184Z,13.58
2022-10-25T23:34:26.600Z,13.55
2022-10-25T23:37:28.004Z,13.51
2022-10-25T23:40:31.509Z,13.54
2022-10-25T23:43:33.486Z,13.55
2022-10-25T23:46:34.948Z,13.53
2022-10-25T23:49:36.354Z,13.53
2022-10-25T23:52:37.802Z,13.51
2022-10-25T23:55:39.244Z,13.51
2022-10-25T23:58:41.011Z,13.52
